sensor_id;sensor_type;location;lat;lon;timestamp;P1;durP1;ratioP1;P2;durP2;ratioP2
14125;SDS011;7141;49.484;11.242;2023-04-26T00:00:20;10.20;;;4.17;;
14125;SDS011;7141;49.484;11.242;2023-04-26T00:02:46;7.33;;;4.33;;
14125;SDS011;7141;49.484;11.242;2023-04-26T00:05:12;8.57;;;4.20;;
14125;SDS011;7141;49.484;11.242;2023-04-26T00:07:39;9.90;;;3.90;;
14125;SDS011;7141;49.484;11.242;2023-04-26T00:10:06;8.63;;;4.20;;
14125;SDS011;7141;49.484;11.242;2023-04-26T00:12:32;5.90;;;3.70;;
14125;SDS011;7141;49.484;11.242;2023-04-26T00:14:59;7.90;;;4.13;;
14125;SDS011;7141;49.484;11.242;2023-04-26T00:17:25;9.50;;;4.83;;
14125;SDS011;7141;49.484;11.242;2023-04-26T00:19:50;7.77;;;4.00;;
14125;SDS011;7141;49.484;11.242;2023-04-26T00:22:16;10.23;;;4.60;;
14125;SDS011;7141;49.484;11.242;2023-04-26T00:24:42;10.03;;;4.40;;
14125;SDS011;7141;49.484;11.242;2023-04-26T00:27:08;9.20;;;4.57;;
14125;SDS011;7141;49.484;11.242;2023-04-26T00:29:35;7.97;;;4.80;;
14125;SDS011;7141;49.484;11.242;2023-04-26T00:32:01;7.57;;;4.47;;
14125;SDS011;7141;49.484;11.242;2023-04-26T00:34:31;8.90;;;4.83;;
14125;SDS011;7141;49.484;11.242;2023-04-26T00:36:58;8.30;;;5.00;;
14125;SDS011;7141;49.484;11.242;2023-04-26T00:39:24;8.40;;;4.70;;
14125;SDS011;7141;49.484;11.242;2023-04-26T00:41:50;13.67;;;4.27;;
14125;SDS011;7141;49.484;11.242;2023-04-26T00:44:16;13.13;;;4.30;;
14125;SDS011;7141;49.484;11.242;2023-04-26T00:46:42;10.17;;;4.63;;
14125;SDS011;7141;49.484;11.242;2023-04-26T00:49:09;11.27;;;4.83;;
14125;SDS011;7141;49.484;11.242;2023-04-26T00:51:36;10.70;;;4.30;;
14125;SDS011;7141;49.484;11.242;2023-04-26T00:54:03;8.50;;;4.13;;
14125;SDS011;7141;49.484;11.242;2023-04-26T00:56:29;9.90;;;5.00;;
14125;SDS011;7141;49.484;11.242;2023-04-26T00:58:56;10.07;;;4.23;;
14125;SDS011;7141;49.484;11.242;2023-04-26T01:01:22;6.87;;;4.27;;
14125;SDS011;7141;49.484;11.242;2023-04-26T01:03:48;9.77;;;4.90;;
14125;SDS011;7141;49.484;11.242;2023-04-26T01:06:13;8.67;;;4.70;;
14125;SDS011;7141;49.484;11.242;2023-04-26T01:08:40;6.90;;;4.40;;
14125;SDS011;7141;49.484;11.242;2023-04-26T01:11:06;14.03;;;5.00;;
14125;SDS011;7141;49.484;11.242;2023-04-26T01:13:32;10.30;;;4.90;;
14125;SDS011;7141;49.484;11.242;2023-04-26T01:15:58;11.37;;;5.33;;
14125;SDS011;7141;49.484;11.242;2023-04-26T01:18:24;11.80;;;5.13;;
14125;SDS011;7141;49.484;11.242;2023-04-26T01:20:51;9.13;;;4.70;;
14125;SDS011;7141;49.484;11.242;2023-04-26T01:23:17;10.83;;;4.90;;
14125;SDS011;7141;49.484;11.242;2023-04-26T01:25:43;15.30;;;4.87;;
14125;SDS011;7141;49.484;11.242;2023-04-26T01:28:09;13.83;;;5.03;;
14125;SDS011;7141;49.484;11.242;2023-04-26T01:30:35;10.00;;;4.90;;
14125;SDS011;7141;49.484;11.242;2023-04-26T01:33:01;10.90;;;5.17;;
14125;SDS011;7141;49.484;11.242;2023-04-26T01:35:27;12.27;;;5.43;;
14125;SDS011;7141;49.484;11.242;2023-04-26T01:37:53;12.67;;;5.83;;
14125;SDS011;7141;49.484;11.242;2023-04-26T01:40:19;11.63;;;5.17;;
14125;SDS011;7141;49.484;11.242;2023-04-26T01:42:46;20.27;;;6.33;;
14125;SDS011;7141;49.484;11.242;2023-04-26T01:45:11;13.83;;;5.93;;
14125;SDS011;7141;49.484;11.242;2023-04-26T01:47:37;15.93;;;5.77;;
14125;SDS011;7141;49.484;11.242;2023-04-26T01:50:04;12.83;;;5.43;;
14125;SDS011;7141;49.484;11.242;2023-04-26T01:52:30;12.60;;;5.67;;
14125;SDS011;7141;49.484;11.242;2023-04-26T01:54:56;11.33;;;4.77;;
14125;SDS011;7141;49.484;11.242;2023-04-26T01:57:22;10.13;;;5.40;;
14125;SDS011;7141;49.484;11.242;2023-04-26T01:59:48;10.53;;;5.33;;
14125;SDS011;7141;49.484;11.242;2023-04-26T02:02:15;9.73;;;5.13;;
14125;SDS011;7141;49.484;11.242;2023-04-26T02:04:42;7.97;;;5.00;;
14125;SDS011;7141;49.484;11.242;2023-04-26T02:07:08;8.77;;;5.40;;
14125;SDS011;7141;49.484;11.242;2023-04-26T02:09:34;8.63;;;5.43;;
14125;SDS011;7141;49.484;11.242;2023-04-26T02:12:00;13.40;;;5.80;;
14125;SDS011;7141;49.484;11.242;2023-04-26T02:14:26;9.90;;;5.23;;
14125;SDS011;7141;49.484;11.242;2023-04-26T02:16:52;10.83;;;4.60;;
14125;SDS011;7141;49.484;11.242;2023-04-26T02:19:18;9.60;;;5.73;;
14125;SDS011;7141;49.484;11.242;2023-04-26T02:21:54;10.70;;;4.80;;
14125;SDS011;7141;49.484;11.242;2023-04-26T02:24:21;7.20;;;4.03;;
14125;SDS011;7141;49.484;11.242;2023-04-26T02:26:47;6.53;;;4.47;;
14125;SDS011;7141;49.484;11.242;2023-04-26T02:29:13;10.17;;;5.33;;
14125;SDS011;7141;49.484;11.242;2023-04-26T02:31:39;11.23;;;5.20;;
14125;SDS011;7141;49.484;11.242;2023-04-26T02:34:05;11.43;;;5.20;;
14125;SDS011;7141;49.484;11.242;2023-04-26T02:36:31;9.87;;;5.13;;
14125;SDS011;7141;49.484;11.242;2023-04-26T02:38:58;10.73;;;5.07;;
14125;SDS011;7141;49.484;11.242;2023-04-26T02:41:24;7.93;;;4.57;;
14125;SDS011;7141;49.484;11.242;2023-04-26T02:43:50;12.20;;;4.60;;
14125;SDS011;7141;49.484;11.242;2023-04-26T02:46:16;7.30;;;4.60;;
14125;SDS011;7141;49.484;11.242;2023-04-26T02:48:42;7.50;;;5.17;;
14125;SDS011;7141;49.484;11.242;2023-04-26T02:51:08;9.40;;;4.47;;
14125;SDS011;7141;49.484;11.242;2023-04-26T02:53:34;11.13;;;5.10;;
14125;SDS011;7141;49.484;11.242;2023-04-26T02:56:00;12.10;;;5.33;;
14125;SDS011;7141;49.484;11.242;2023-04-26T02:58:26;8.13;;;4.67;;
14125;SDS011;7141;49.484;11.242;2023-04-26T03:00:52;7.90;;;4.70;;
14125;SDS011;7141;49.484;11.242;2023-04-26T03:03:18;7.20;;;4.43;;
14125;SDS011;7141;49.484;11.242;2023-04-26T03:05:45;9.50;;;4.57;;
14125;SDS011;7141;49.484;11.242;2023-04-26T03:08:11;7.70;;;4.20;;
14125;SDS011;7141;49.484;11.242;2023-04-26T03:10:37;6.80;;;4.37;;
14125;SDS011;7141;49.484;11.242;2023-04-26T03:13:03;10.67;;;4.60;;
14125;SDS011;7141;49.484;11.242;2023-04-26T03:15:29;11.43;;;4.80;;
14125;SDS011;7141;49.484;11.242;2023-04-26T03:17:55;8.50;;;4.60;;
14125;SDS011;7141;49.484;11.242;2023-04-26T03:20:24;9.50;;;4.80;;
14125;SDS011;7141;49.484;11.242;2023-04-26T03:22:50;8.43;;;4.93;;
14125;SDS011;7141;49.484;11.242;2023-04-26T03:25:16;8.63;;;5.50;;
14125;SDS011;7141;49.484;11.242;2023-04-26T03:27:42;12.33;;;5.93;;
14125;SDS011;7141;49.484;11.242;2023-04-26T03:30:08;11.20;;;7.37;;
14125;SDS011;7141;49.484;11.242;2023-04-26T03:32:34;10.50;;;5.43;;
14125;SDS011;7141;49.484;11.242;2023-04-26T03:35:00;8.80;;;4.87;;
14125;SDS011;7141;49.484;11.242;2023-04-26T03:37:26;8.20;;;4.63;;
14125;SDS011;7141;49.484;11.242;2023-04-26T03:39:52;7.47;;;4.87;;
14125;SDS011;7141;49.484;11.242;2023-04-26T03:42:21;9.17;;;4.93;;
14125;SDS011;7141;49.484;11.242;2023-04-26T03:44:47;12.00;;;5.23;;
14125;SDS011;7141;49.484;11.242;2023-04-26T03:47:13;11.50;;;5.57;;
14125;SDS011;7141;49.484;11.242;2023-04-26T03:49:40;10.27;;;5.33;;
14125;SDS011;7141;49.484;11.242;2023-04-26T03:52:06;9.17;;;5.13;;
14125;SDS011;7141;49.484;11.242;2023-04-26T03:54:32;7.90;;;4.40;;
14125;SDS011;7141;49.484;11.242;2023-04-26T03:56:58;7.10;;;4.57;;
14125;SDS011;7141;49.484;11.242;2023-04-26T03:59:24;14.00;;;5.73;;
14125;SDS011;7141;49.484;11.242;2023-04-26T04:01:50;9.63;;;5.33;;
14125;SDS011;7141;49.484;11.242;2023-04-26T04:04:16;9.40;;;4.70;;
14125;SDS011;7141;49.484;11.242;2023-04-26T04:06:42;11.13;;;5.43;;
14125;SDS011;7141;49.484;11.242;2023-04-26T04:09:08;15.27;;;5.23;;
14125;SDS011;7141;49.484;11.242;2023-04-26T04:11:34;10.00;;;5.33;;
14125;SDS011;7141;49.484;11.242;2023-04-26T04:14:00;7.63;;;4.57;;
14125;SDS011;7141;49.484;11.242;2023-04-26T04:16:27;7.80;;;5.10;;
14125;SDS011;7141;49.484;11.242;2023-04-26T04:18:52;8.97;;;5.53;;
14125;SDS011;7141;49.484;11.242;2023-04-26T04:21:18;12.30;;;5.90;;
14125;SDS011;7141;49.484;11.242;2023-04-26T04:23:45;12.33;;;5.57;;
14125;SDS011;7141;49.484;11.242;2023-04-26T04:26:11;9.97;;;4.97;;
14125;SDS011;7141;49.484;11.242;2023-04-26T04:28:38;12.20;;;4.97;;
14125;SDS011;7141;49.484;11.242;2023-04-26T04:31:05;6.67;;;4.53;;
14125;SDS011;7141;49.484;11.242;2023-04-26T04:33:34;8.27;;;5.17;;
14125;SDS011;7141;49.484;11.242;2023-04-26T04:36:00;10.93;;;5.33;;
14125;SDS011;7141;49.484;11.242;2023-04-26T04:38:25;6.57;;;4.40;;
14125;SDS011;7141;49.484;11.242;2023-04-26T04:40:53;9.50;;;4.77;;
14125;SDS011;7141;49.484;11.242;2023-04-26T04:43:19;7.30;;;4.53;;
14125;SDS011;7141;49.484;11.242;2023-04-26T04:45:45;7.47;;;4.57;;
14125;SDS011;7141;49.484;11.242;2023-04-26T04:48:13;9.53;;;4.33;;
14125;SDS011;7141;49.484;11.242;2023-04-26T04:50:39;10.23;;;5.17;;
14125;SDS011;7141;49.484;11.242;2023-04-26T04:53:06;13.03;;;6.13;;
14125;SDS011;7141;49.484;11.242;2023-04-26T04:55:33;12.63;;;6.57;;
14125;SDS011;7141;49.484;11.242;2023-04-26T04:57:58;10.37;;;5.33;;
14125;SDS011;7141;49.484;11.242;2023-04-26T05:00:25;9.27;;;5.73;;
14125;SDS011;7141;49.484;11.242;2023-04-26T05:02:51;13.87;;;5.83;;
14125;SDS011;7141;49.484;11.242;2023-04-26T05:05:17;9.87;;;4.70;;
14125;SDS011;7141;49.484;11.242;2023-04-26T05:07:43;12.83;;;5.43;;
14125;SDS011;7141;49.484;11.242;2023-04-26T05:10:09;14.63;;;5.53;;
14125;SDS011;7141;49.484;11.242;2023-04-26T05:12:36;10.80;;;5.07;;
14125;SDS011;7141;49.484;11.242;2023-04-26T05:15:02;7.57;;;5.20;;
14125;SDS011;7141;49.484;11.242;2023-04-26T05:17:29;14.80;;;5.83;;
14125;SDS011;7141;49.484;11.242;2023-04-26T05:19:56;11.60;;;6.00;;
14125;SDS011;7141;49.484;11.242;2023-04-26T05:22:22;14.57;;;7.10;;
14125;SDS011;7141;49.484;11.242;2023-04-26T05:24:48;15.13;;;7.33;;
14125;SDS011;7141;49.484;11.242;2023-04-26T05:27:14;27.23;;;9.90;;
14125;SDS011;7141;49.484;11.242;2023-04-26T05:29:40;18.20;;;8.90;;
14125;SDS011;7141;49.484;11.242;2023-04-26T05:32:06;12.97;;;6.80;;
14125;SDS011;7141;49.484;11.242;2023-04-26T05:34:32;12.83;;;7.03;;
14125;SDS011;7141;49.484;11.242;2023-04-26T05:36:58;16.07;;;7.50;;
14125;SDS011;7141;49.484;11.242;2023-04-26T05:39:25;10.13;;;7.00;;
14125;SDS011;7141;49.484;11.242;2023-04-26T05:41:51;12.70;;;7.80;;
14125;SDS011;7141;49.484;11.242;2023-04-26T05:44:17;14.87;;;8.60;;
14125;SDS011;7141;49.484;11.242;2023-04-26T05:46:43;15.90;;;7.13;;
14125;SDS011;7141;49.484;11.242;2023-04-26T05:49:09;9.87;;;6.20;;
14125;SDS011;7141;49.484;11.242;2023-04-26T05:51:35;15.37;;;6.77;;
14125;SDS011;7141;49.484;11.242;2023-04-26T05:54:01;13.93;;;5.97;;
14125;SDS011;7141;49.484;11.242;2023-04-26T05:56:27;12.80;;;5.53;;
14125;SDS011;7141;49.484;11.242;2023-04-26T05:58:53;12.73;;;5.40;;
14125;SDS011;7141;49.484;11.242;2023-04-26T06:01:19;10.53;;;6.17;;
14125;SDS011;7141;49.484;11.242;2023-04-26T06:03:45;8.10;;;4.87;;
14125;SDS011;7141;49.484;11.242;2023-04-26T06:06:11;6.27;;;4.43;;
14125;SDS011;7141;49.484;11.242;2023-04-26T06:08:37;9.30;;;4.43;;
14125;SDS011;7141;49.484;11.242;2023-04-26T06:11:03;12.37;;;4.97;;
14125;SDS011;7141;49.484;11.242;2023-04-26T06:13:29;11.60;;;4.60;;
14125;SDS011;7141;49.484;11.242;2023-04-26T06:15:55;10.27;;;5.20;;
14125;SDS011;7141;49.484;11.242;2023-04-26T06:18:21;11.83;;;4.53;;
14125;SDS011;7141;49.484;11.242;2023-04-26T06:20:47;9.27;;;4.33;;
14125;SDS011;7141;49.484;11.242;2023-04-26T06:23:13;10.70;;;3.93;;
14125;SDS011;7141;49.484;11.242;2023-04-26T06:25:39;11.07;;;4.40;;
14125;SDS011;7141;49.484;11.242;2023-04-26T06:28:08;9.20;;;4.10;;
14125;SDS011;7141;49.484;11.242;2023-04-26T06:30:34;11.40;;;4.93;;
14125;SDS011;7141;49.484;11.242;2023-04-26T06:33:00;9.33;;;4.70;;
14125;SDS011;7141;49.484;11.242;2023-04-26T06:35:26;8.53;;;3.67;;
14125;SDS011;7141;49.484;11.242;2023-04-26T06:37:52;8.67;;;3.77;;
14125;SDS011;7141;49.484;11.242;2023-04-26T06:40:18;6.60;;;3.43;;
14125;SDS011;7141;49.484;11.242;2023-04-26T06:42:45;7.13;;;3.63;;
14125;SDS011;7141;49.484;11.242;2023-04-26T06:45:11;5.90;;;3.57;;
14125;SDS011;7141;49.484;11.242;2023-04-26T06:47:37;6.43;;;3.70;;
14125;SDS011;7141;49.484;11.242;2023-04-26T06:50:03;6.80;;;3.57;;
14125;SDS011;7141;49.484;11.242;2023-04-26T06:52:29;10.10;;;3.27;;
14125;SDS011;7141;49.484;11.242;2023-04-26T06:54:55;5.63;;;3.47;;
14125;SDS011;7141;49.484;11.242;2023-04-26T06:57:21;7.50;;;3.20;;
14125;SDS011;7141;49.484;11.242;2023-04-26T06:59:47;5.83;;;3.60;;
14125;SDS011;7141;49.484;11.242;2023-04-26T07:02:13;6.27;;;2.87;;
14125;SDS011;7141;49.484;11.242;2023-04-26T07:04:39;5.53;;;3.00;;
14125;SDS011;7141;49.484;11.242;2023-04-26T07:07:05;6.90;;;3.50;;
14125;SDS011;7141;49.484;11.242;2023-04-26T07:09:32;6.47;;;3.13;;
14125;SDS011;7141;49.484;11.242;2023-04-26T07:11:58;6.20;;;3.33;;
14125;SDS011;7141;49.484;11.242;2023-04-26T07:14:24;8.43;;;3.50;;
14125;SDS011;7141;49.484;11.242;2023-04-26T07:16:50;4.33;;;3.10;;
14125;SDS011;7141;49.484;11.242;2023-04-26T07:19:16;9.93;;;3.30;;
14125;SDS011;7141;49.484;11.242;2023-04-26T07:21:42;7.53;;;2.70;;
14125;SDS011;7141;49.484;11.242;2023-04-26T07:24:08;6.00;;;3.17;;
14125;SDS011;7141;49.484;11.242;2023-04-26T07:26:34;6.70;;;2.83;;
14125;SDS011;7141;49.484;11.242;2023-04-26T07:29:01;7.20;;;2.60;;
14125;SDS011;7141;49.484;11.242;2023-04-26T07:31:28;5.20;;;2.53;;
14125;SDS011;7141;49.484;11.242;2023-04-26T07:33:55;5.20;;;2.60;;
14125;SDS011;7141;49.484;11.242;2023-04-26T07:36:21;5.23;;;2.80;;
14125;SDS011;7141;49.484;11.242;2023-04-26T07:38:47;8.37;;;2.90;;
14125;SDS011;7141;49.484;11.242;2023-04-26T07:41:13;4.23;;;2.40;;
14125;SDS011;7141;49.484;11.242;2023-04-26T07:43:41;6.33;;;2.50;;
14125;SDS011;7141;49.484;11.242;2023-04-26T07:46:07;4.37;;;2.17;;
14125;SDS011;7141;49.484;11.242;2023-04-26T07:48:33;6.10;;;2.03;;
14125;SDS011;7141;49.484;11.242;2023-04-26T07:51:05;5.43;;;2.63;;
14125;SDS011;7141;49.484;11.242;2023-04-26T07:53:32;5.27;;;2.00;;
14125;SDS011;7141;49.484;11.242;2023-04-26T07:55:58;7.07;;;2.13;;
14125;SDS011;7141;49.484;11.242;2023-04-26T07:58:23;3.50;;;2.00;;
14125;SDS011;7141;49.484;11.242;2023-04-26T08:00:49;10.80;;;2.40;;
14125;SDS011;7141;49.484;11.242;2023-04-26T08:03:16;1.77;;;1.50;;
14125;SDS011;7141;49.484;11.242;2023-04-26T08:05:42;4.73;;;2.20;;
14125;SDS011;7141;49.484;11.242;2023-04-26T08:08:08;5.10;;;1.87;;
14125;SDS011;7141;49.484;11.242;2023-04-26T08:10:34;8.10;;;2.17;;
14125;SDS011;7141;49.484;11.242;2023-04-26T08:13:02;5.93;;;1.73;;
14125;SDS011;7141;49.484;11.242;2023-04-26T08:15:28;3.77;;;2.03;;
14125;SDS011;7141;49.484;11.242;2023-04-26T08:17:55;7.77;;;2.20;;
14125;SDS011;7141;49.484;11.242;2023-04-26T08:20:21;8.33;;;2.40;;
14125;SDS011;7141;49.484;11.242;2023-04-26T08:22:47;3.60;;;2.07;;
14125;SDS011;7141;49.484;11.242;2023-04-26T08:25:14;5.50;;;2.40;;
14125;SDS011;7141;49.484;11.242;2023-04-26T08:27:40;3.37;;;2.00;;
14125;SDS011;7141;49.484;11.242;2023-04-26T08:30:07;6.30;;;2.40;;
14125;SDS011;7141;49.484;11.242;2023-04-26T08:32:33;2.60;;;1.70;;
14125;SDS011;7141;49.484;11.242;2023-04-26T08:34:59;5.83;;;2.00;;
14125;SDS011;7141;49.484;11.242;2023-04-26T08:37:25;4.37;;;1.80;;
14125;SDS011;7141;49.484;11.242;2023-04-26T08:39:51;3.57;;;1.90;;
14125;SDS011;7141;49.484;11.242;2023-04-26T08:42:17;4.23;;;1.70;;
14125;SDS011;7141;49.484;11.242;2023-04-26T08:44:44;5.70;;;1.90;;
14125;SDS011;7141;49.484;11.242;2023-04-26T08:47:34;18.57;;;3.10;;
14125;SDS011;7141;49.484;11.242;2023-04-26T08:50:02;6.40;;;2.00;;
14125;SDS011;7141;49.484;11.242;2023-04-26T08:52:30;5.47;;;1.90;;
14125;SDS011;7141;49.484;11.242;2023-04-26T08:54:57;3.13;;;1.60;;
14125;SDS011;7141;49.484;11.242;2023-04-26T08:57:23;4.13;;;1.60;;
14125;SDS011;7141;49.484;11.242;2023-04-26T08:59:50;8.17;;;1.90;;
14125;SDS011;7141;49.484;11.242;2023-04-26T09:02:17;7.20;;;2.20;;
14125;SDS011;7141;49.484;11.242;2023-04-26T09:04:46;5.53;;;1.67;;
14125;SDS011;7141;49.484;11.242;2023-04-26T09:07:46;3.60;;;1.73;;
14125;SDS011;7141;49.484;11.242;2023-04-26T09:10:05;5.00;;;2.07;;
14125;SDS011;7141;49.484;11.242;2023-04-26T09:12:31;6.07;;;1.70;;
14125;SDS011;7141;49.484;11.242;2023-04-26T09:14:57;8.50;;;4.60;;
14125;SDS011;7141;49.484;11.242;2023-04-26T09:19:51;5.97;;;2.00;;
14125;SDS011;7141;49.484;11.242;2023-04-26T09:22:27;9.33;;;1.67;;
14125;SDS011;7141;49.484;11.242;2023-04-26T09:24:53;6.90;;;1.90;;
14125;SDS011;7141;49.484;11.242;2023-04-26T09:27:19;7.87;;;2.30;;
14125;SDS011;7141;49.484;11.242;2023-04-26T09:37:58;3.90;;;1.80;;
14125;SDS011;7141;49.484;11.242;2023-04-26T09:40:26;5.87;;;2.10;;
14125;SDS011;7141;49.484;11.242;2023-04-26T09:42:56;6.27;;;2.10;;
14125;SDS011;7141;49.484;11.242;2023-04-26T09:45:23;6.60;;;1.90;;
14125;SDS011;7141;49.484;11.242;2023-04-26T09:47:49;4.57;;;2.10;;
14125;SDS011;7141;49.484;11.242;2023-04-26T09:50:27;4.87;;;2.10;;
14125;SDS011;7141;49.484;11.242;2023-04-26T09:52:54;3.53;;;1.93;;
14125;SDS011;7141;49.484;11.242;2023-04-26T09:55:27;3.73;;;2.20;;
14125;SDS011;7141;49.484;11.242;2023-04-26T09:57:54;6.93;;;2.87;;
14125;SDS011;7141;49.484;11.242;2023-04-26T10:00:20;3.60;;;2.07;;
14125;SDS011;7141;49.484;11.242;2023-04-26T10:02:46;9.73;;;2.20;;
14125;SDS011;7141;49.484;11.242;2023-04-26T10:05:12;4.60;;;2.00;;
14125;SDS011;7141;49.484;11.242;2023-04-26T10:07:38;7.40;;;2.10;;
14125;SDS011;7141;49.484;11.242;2023-04-26T10:10:06;5.80;;;2.00;;
14125;SDS011;7141;49.484;11.242;2023-04-26T10:12:32;4.93;;;2.07;;
14125;SDS011;7141;49.484;11.242;2023-04-26T10:14:58;3.33;;;1.93;;
14125;SDS011;7141;49.484;11.242;2023-04-26T10:17:25;5.60;;;1.80;;
14125;SDS011;7141;49.484;11.242;2023-04-26T10:19:52;3.67;;;1.90;;
14125;SDS011;7141;49.484;11.242;2023-04-26T10:22:21;2.63;;;1.83;;
14125;SDS011;7141;49.484;11.242;2023-04-26T10:24:48;3.27;;;1.80;;
14125;SDS011;7141;49.484;11.242;2023-04-26T10:27:14;4.20;;;2.00;;
14125;SDS011;7141;49.484;11.242;2023-04-26T10:32:18;5.00;;;1.97;;
14125;SDS011;7141;49.484;11.242;2023-04-26T10:34:44;6.03;;;2.40;;
14125;SDS011;7141;49.484;11.242;2023-04-26T10:37:30;11.20;;;6.37;;
14125;SDS011;7141;49.484;11.242;2023-04-26T10:40:21;4.53;;;2.57;;
14125;SDS011;7141;49.484;11.242;2023-04-26T10:42:42;4.17;;;1.90;;
14125;SDS011;7141;49.484;11.242;2023-04-26T10:45:24;5.10;;;1.80;;
14125;SDS011;7141;49.484;11.242;2023-04-26T10:47:54;5.77;;;2.00;;
14125;SDS011;7141;49.484;11.242;2023-04-26T10:53:21;3.17;;;1.60;;
14125;SDS011;7141;49.484;11.242;2023-04-26T10:55:47;3.87;;;1.90;;
14125;SDS011;7141;49.484;11.242;2023-04-26T10:58:34;4.97;;;2.30;;
14125;SDS011;7141;49.484;11.242;2023-04-26T11:03:29;4.60;;;2.20;;
14125;SDS011;7141;49.484;11.242;2023-04-26T11:05:55;5.97;;;3.43;;
14125;SDS011;7141;49.484;11.242;2023-04-26T11:10:58;5.93;;;1.90;;
14125;SDS011;7141;49.484;11.242;2023-04-26T11:13:24;6.30;;;2.37;;
14125;SDS011;7141;49.484;11.242;2023-04-26T11:15:53;2.47;;;1.90;;
14125;SDS011;7141;49.484;11.242;2023-04-26T11:18:24;5.50;;;2.47;;
14125;SDS011;7141;49.484;11.242;2023-04-26T11:20:50;4.87;;;1.87;;
14125;SDS011;7141;49.484;11.242;2023-04-26T11:23:17;6.00;;;2.27;;
14125;SDS011;7141;49.484;11.242;2023-04-26T11:25:43;4.57;;;2.30;;
14125;SDS011;7141;49.484;11.242;2023-04-26T11:28:10;4.40;;;2.53;;
14125;SDS011;7141;49.484;11.242;2023-04-26T11:30:36;5.50;;;2.30;;
14125;SDS011;7141;49.484;11.242;2023-04-26T11:33:02;5.50;;;2.03;;
14125;SDS011;7141;49.484;11.242;2023-04-26T11:35:29;9.23;;;2.67;;
14125;SDS011;7141;49.484;11.242;2023-04-26T11:37:57;5.33;;;2.40;;
14125;SDS011;7141;49.484;11.242;2023-04-26T11:40:28;10.43;;;5.07;;
14125;SDS011;7141;49.484;11.242;2023-04-26T11:42:57;4.33;;;2.00;;
14125;SDS011;7141;49.484;11.242;2023-04-26T11:45:24;4.93;;;2.10;;
14125;SDS011;7141;49.484;11.242;2023-04-26T11:47:50;6.27;;;3.80;;
14125;SDS011;7141;49.484;11.242;2023-04-26T11:50:16;3.63;;;2.63;;
14125;SDS011;7141;49.484;11.242;2023-04-26T11:52:42;5.17;;;2.23;;
14125;SDS011;7141;49.484;11.242;2023-04-26T11:55:08;3.40;;;2.10;;
14125;SDS011;7141;49.484;11.242;2023-04-26T11:57:34;8.30;;;2.30;;
14125;SDS011;7141;49.484;11.242;2023-04-26T12:00:07;3.43;;;2.30;;
14125;SDS011;7141;49.484;11.242;2023-04-26T12:02:38;2.83;;;1.97;;
14125;SDS011;7141;49.484;11.242;2023-04-26T12:05:05;4.20;;;2.30;;
14125;SDS011;7141;49.484;11.242;2023-04-26T12:07:36;4.37;;;2.00;;
14125;SDS011;7141;49.484;11.242;2023-04-26T12:10:18;5.47;;;2.20;;
14125;SDS011;7141;49.484;11.242;2023-04-26T12:12:51;7.63;;;2.50;;
14125;SDS011;7141;49.484;11.242;2023-04-26T12:15:21;4.03;;;1.83;;
14125;SDS011;7141;49.484;11.242;2023-04-26T12:17:54;5.20;;;2.13;;
14125;SDS011;7141;49.484;11.242;2023-04-26T12:20:27;3.90;;;2.10;;
14125;SDS011;7141;49.484;11.242;2023-04-26T12:23:06;4.50;;;2.10;;
14125;SDS011;7141;49.484;11.242;2023-04-26T12:25:33;3.70;;;1.83;;
14125;SDS011;7141;49.484;11.242;2023-04-26T12:27:59;4.67;;;1.77;;
14125;SDS011;7141;49.484;11.242;2023-04-26T12:30:26;3.73;;;2.00;;
14125;SDS011;7141;49.484;11.242;2023-04-26T12:32:53;3.83;;;2.07;;
14125;SDS011;7141;49.484;11.242;2023-04-26T12:35:20;3.47;;;1.90;;
14125;SDS011;7141;49.484;11.242;2023-04-26T12:37:46;2.63;;;1.80;;
14125;SDS011;7141;49.484;11.242;2023-04-26T12:40:13;2.93;;;2.00;;
14125;SDS011;7141;49.484;11.242;2023-04-26T12:42:40;3.63;;;2.13;;
14125;SDS011;7141;49.484;11.242;2023-04-26T12:45:06;2.80;;;2.30;;
14125;SDS011;7141;49.484;11.242;2023-04-26T12:47:32;5.03;;;2.50;;
14125;SDS011;7141;49.484;11.242;2023-04-26T12:49:58;6.63;;;2.37;;
14125;SDS011;7141;49.484;11.242;2023-04-26T12:52:25;2.77;;;2.00;;
14125;SDS011;7141;49.484;11.242;2023-04-26T12:54:51;4.70;;;2.13;;
14125;SDS011;7141;49.484;11.242;2023-04-26T12:57:18;5.47;;;2.20;;
14125;SDS011;7141;49.484;11.242;2023-04-26T12:59:45;3.83;;;2.33;;
14125;SDS011;7141;49.484;11.242;2023-04-26T13:02:11;2.67;;;2.00;;
14125;SDS011;7141;49.484;11.242;2023-04-26T13:04:37;10.30;;;2.80;;
14125;SDS011;7141;49.484;11.242;2023-04-26T13:07:03;4.37;;;2.07;;
14125;SDS011;7141;49.484;11.242;2023-04-26T13:09:29;6.23;;;2.30;;
14125;SDS011;7141;49.484;11.242;2023-04-26T13:11:55;6.87;;;2.20;;
14125;SDS011;7141;49.484;11.242;2023-04-26T13:14:21;4.37;;;2.27;;
14125;SDS011;7141;49.484;11.242;2023-04-26T13:16:47;6.37;;;2.30;;
14125;SDS011;7141;49.484;11.242;2023-04-26T13:19:13;5.53;;;2.40;;
14125;SDS011;7141;49.484;11.242;2023-04-26T13:21:40;2.57;;;1.73;;
14125;SDS011;7141;49.484;11.242;2023-04-26T13:24:06;3.70;;;1.83;;
14125;SDS011;7141;49.484;11.242;2023-04-26T13:26:32;5.23;;;2.20;;
14125;SDS011;7141;49.484;11.242;2023-04-26T13:28:58;3.73;;;2.10;;
14125;SDS011;7141;49.484;11.242;2023-04-26T13:31:24;4.50;;;2.00;;
14125;SDS011;7141;49.484;11.242;2023-04-26T13:33:50;5.40;;;2.37;;
14125;SDS011;7141;49.484;11.242;2023-04-26T13:36:16;3.60;;;2.17;;
14125;SDS011;7141;49.484;11.242;2023-04-26T13:38:43;4.60;;;2.27;;
14125;SDS011;7141;49.484;11.242;2023-04-26T13:41:09;10.10;;;2.97;;
14125;SDS011;7141;49.484;11.242;2023-04-26T13:43:35;5.90;;;2.53;;
14125;SDS011;7141;49.484;11.242;2023-04-26T13:46:01;7.53;;;2.33;;
14125;SDS011;7141;49.484;11.242;2023-04-26T13:48:27;6.27;;;2.20;;
14125;SDS011;7141;49.484;11.242;2023-04-26T13:50:53;6.70;;;2.60;;
14125;SDS011;7141;49.484;11.242;2023-04-26T13:53:22;4.73;;;1.93;;
14125;SDS011;7141;49.484;11.242;2023-04-26T13:55:49;3.43;;;2.10;;
14125;SDS011;7141;49.484;11.242;2023-04-26T13:58:15;3.30;;;2.17;;
14125;SDS011;7141;49.484;11.242;2023-04-26T14:00:41;3.03;;;2.30;;
14125;SDS011;7141;49.484;11.242;2023-04-26T14:03:07;9.83;;;3.57;;
14125;SDS011;7141;49.484;11.242;2023-04-26T14:05:33;5.07;;;3.07;;
14125;SDS011;7141;49.484;11.242;2023-04-26T14:07:59;8.33;;;2.80;;
14125;SDS011;7141;49.484;11.242;2023-04-26T14:10:25;6.73;;;2.43;;
14125;SDS011;7141;49.484;11.242;2023-04-26T14:12:51;4.07;;;2.00;;
14125;SDS011;7141;49.484;11.242;2023-04-26T14:15:17;4.53;;;2.43;;
14125;SDS011;7141;49.484;11.242;2023-04-26T14:17:43;4.27;;;2.50;;
14125;SDS011;7141;49.484;11.242;2023-04-26T14:20:10;6.07;;;2.63;;
14125;SDS011;7141;49.484;11.242;2023-04-26T14:22:37;6.17;;;2.60;;
14125;SDS011;7141;49.484;11.242;2023-04-26T14:25:03;6.27;;;2.90;;
14125;SDS011;7141;49.484;11.242;2023-04-26T14:27:29;7.83;;;2.70;;
14125;SDS011;7141;49.484;11.242;2023-04-26T14:29:55;5.77;;;2.67;;
14125;SDS011;7141;49.484;11.242;2023-04-26T14:32:21;4.83;;;2.30;;
14125;SDS011;7141;49.484;11.242;2023-04-26T14:34:46;4.67;;;2.37;;
14125;SDS011;7141;49.484;11.242;2023-04-26T14:37:12;6.87;;;2.70;;
14125;SDS011;7141;49.484;11.242;2023-04-26T14:39:39;4.53;;;2.37;;
14125;SDS011;7141;49.484;11.242;2023-04-26T14:42:05;6.37;;;2.50;;
14125;SDS011;7141;49.484;11.242;2023-04-26T14:44:31;6.13;;;2.50;;
14125;SDS011;7141;49.484;11.242;2023-04-26T14:46:57;5.47;;;2.73;;
14125;SDS011;7141;49.484;11.242;2023-04-26T14:49:23;5.50;;;2.30;;
14125;SDS011;7141;49.484;11.242;2023-04-26T14:51:49;5.40;;;2.50;;
14125;SDS011;7141;49.484;11.242;2023-04-26T14:54:16;2.97;;;2.17;;
14125;SDS011;7141;49.484;11.242;2023-04-26T14:56:42;5.30;;;2.43;;
14125;SDS011;7141;49.484;11.242;2023-04-26T14:59:08;3.53;;;2.53;;
14125;SDS011;7141;49.484;11.242;2023-04-26T15:01:34;3.93;;;2.30;;